Terminal Aerodrome Forecast
Issued by NWS

Home | Current Version | Previous Version | Text Only | Print | Product List | Glossary On
Versions: 1 2 3 4 5 6 7 8 9 10 11 12 13 14 15 16 17 18 19 20 21 22 23 24 25 26 27 28 29 30 31 32 33 34 35 36 37 38 39 40 41 42 43 44 45 46 47 48 49 50
000
FTUS45 KGJT 281736
TAFASE
TAF
KASE 281736Z 2818/2918 34006KT P6SM VCSH SCT005 BKN015 OVC040
     FM282000 33009KT 1 1/2SM -SHRASN BR SCT008 OVC015
     FM290400 34007KT 1 1/2SM -SHSN BR OVC010
     FM290600 35004KT 3SM -SHSN BR OVC020
     FM291000 VRB03KT P6SM VCSH BKN025
     FM291600 32007KT P6SM SCT030 BKN080=

USA.gov is the U.S. government's official web portal to all federal, state and local government web resources and services.